Skip Navigation

Christman Field Latest Observations

Switch to metric unitsOther observation timesWeekly graphs

Date Time
MST
Temp
°F
RH
%
DewPt
°F
Wind
mph
Dir
°
Gust
mph
Dir
°
Press
in Hg
Solar
W/m^2
Prec
in
2022-01-24 04:50 26.9 67.6 17.6 5.6 259 6.9 255 24.744 0.0 0.00
2022-01-24 04:45 26.3 71.2 18.3 3.6 231 4.7 231 24.745 0.0 0.00
2022-01-24 04:40 26.6 69.8 18.1 3.0 226 4.3 223 24.745 0.0 0.00
2022-01-24 04:35 25.3 74.0 18.1 3.8 231 4.3 246 24.746 0.0 0.00
2022-01-24 04:30 26.0 71.9 18.2 3.4 251 4.7 255 24.744 0.0 0.00
2022-01-24 04:25 26.8 67.9 17.6 3.5 268 3.9 289 24.741 0.0 0.00
2022-01-24 04:20 26.9 67.8 17.7 3.3 303 4.4 336 24.739 0.0 0.00
2022-01-24 04:15 28.3 64.4 17.8 5.4 335 6.2 321 24.739 0.0 0.00
2022-01-24 04:10 28.3 62.5 17.1 3.9 318 5.6 318 24.738 0.0 0.00
2022-01-24 04:05 28.6 64.0 17.9 4.2 352 5.9 355 24.738 0.0 0.00
2022-01-24 04:00 28.0 63.4 17.1 4.2 4 5.1 6 24.737 0.0 0.00
2022-01-24 03:55 27.8 65.7 17.8 4.3 32 5.3 21 24.734 0.0 0.00
2022-01-24 03:50 28.5 61.6 16.9 4.1 15 5.3 15 24.735 0.0 0.00
2022-01-24 03:45 29.7 63.0 18.6 5.9 325 7.9 327 24.736 0.0 0.00
2022-01-24 03:40 34.8 53.5 19.6 2.5 341 6.4 341 24.732 0.0 0.00
2022-01-24 03:35 36.2 47.6 18.2 3.4 238 5.6 261 24.732 0.0 0.00
2022-01-24 03:30 33.5 50.1 16.9 3.5 250 5.1 226 24.732 0.0 0.00
2022-01-24 03:25 31.9 55.3 17.7 4.8 238 6.4 262 24.731 0.0 0.00
2022-01-24 03:20 32.5 58.0 19.3 3.4 200 4.7 163 24.731 0.0 0.00
2022-01-24 03:15 34.3 53.3 19.1 5.3 111 6.4 121 24.733 0.0 0.00
2022-01-24 03:10 33.2 51.7 17.3 5.1 125 6.2 206 24.735 0.0 0.00
2022-01-24 03:05 33.0 57.9 19.8 5.6 220 9.9 247 24.739 0.0 0.00
2022-01-24 03:00 31.6 57.5 18.3 5.9 208 8.9 261 24.740 0.0 0.00
2022-01-24 02:55 30.7 58.3 17.7 4.5 262 9.0 267 24.737 0.0 0.00
2022-01-24 02:50 29.9 62.3 18.6 3.0 202 4.1 224 24.736 0.0 0.00
2022-01-24 02:45 31.3 58.7 18.6 4.2 216 5.4 252 24.737 0.0 0.00
2022-01-24 02:40 30.3 60.2 18.2 3.8 266 5.7 216 24.739 0.0 0.00
2022-01-24 02:35 32.3 59.2 19.6 3.5 227 5.8 230 24.742 0.0 0.00
2022-01-24 02:30 32.0 55.5 17.9 3.5 130 4.6 250 24.744 0.0 0.00
2022-01-24 02:25 29.5 59.7 17.2 2.7 259 4.9 255 24.745 0.0 0.00